createdAt,value
2023-04-27T16:37:50.149Z,13.13
2023-04-27T16:40:18.304Z,9.98
2023-04-27T16:42:46.987Z,12.68
2023-04-27T16:45:14.717Z,13.43
2023-04-27T16:47:42.617Z,11.88
2023-04-27T16:50:11.013Z,11.10
2023-04-27T16:52:38.730Z,12.68
2023-04-27T16:55:06.804Z,14.00
2023-04-27T16:57:34.358Z,13.85
2023-04-27T17:00:02.051Z,16.27
2023-04-27T17:02:29.747Z,13.47
2023-04-27T17:04:59.549Z,14.65
2023-04-27T17:07:28.723Z,18.30
2023-04-27T17:09:56.569Z,22.00
2023-04-27T17:12:24.158Z,20.27
2023-04-27T17:14:51.740Z,18.80
2023-04-27T17:17:19.419Z,21.75
2023-04-27T17:19:46.965Z,17.38
2023-04-27T17:22:15.045Z,21.42
2023-04-27T17:24:42.619Z,20.70
2023-04-27T17:27:10.400Z,23.40
2023-04-27T17:29:38.005Z,18.38
2023-04-27T17:32:05.730Z,21.80
2023-04-27T17:34:33.435Z,20.20
2023-04-27T17:39:55.803Z,20.37
2023-04-27T17:42:23.456Z,25.48
2023-04-27T17:44:51.332Z,21.35
2023-04-27T17:47:20.546Z,23.35
2023-04-27T17:49:48.107Z,23.40
2023-04-27T17:52:15.959Z,19.90
2023-04-27T17:54:43.662Z,20.25
2023-04-27T17:57:11.205Z,23.13
2023-04-27T17:59:38.885Z,20.38
2023-04-27T18:02:06.523Z,18.00
2023-04-27T18:04:34.348Z,20.10
2023-04-27T18:07:02.060Z,20.92
2023-04-27T18:09:30.840Z,21.75
2023-04-27T18:12:00.787Z,20.35
2023-04-27T18:14:28.377Z,21.73
2023-04-27T18:16:56.143Z,20.20
2023-04-27T18:19:24.123Z,19.75
2023-04-27T18:21:51.913Z,16.77
2023-04-27T18:24:19.566Z,20.00
2023-04-27T18:26:47.145Z,20.90
2023-04-27T18:29:15.110Z,20.27
2023-04-27T18:31:46.358Z,15.80
2023-04-27T18:34:14.492Z,16.02
2023-04-27T18:36:41.996Z,18.00
2023-04-27T18:39:09.685Z,22.73
2023-04-27T18:41:37.233Z,22.30
2023-04-27T18:44:05.910Z,16.40
2023-04-27T18:46:34.249Z,16.92
2023-04-27T18:49:02.445Z,18.83
2023-04-27T18:51:30.026Z,17.88
2023-04-27T18:53:58.033Z,21.53
2023-04-27T18:56:25.975Z,21.13
2023-04-27T18:58:53.750Z,22.30
2023-04-27T19:01:26.858Z,19.13
2023-04-27T19:03:55.083Z,20.35
2023-04-27T19:06:22.808Z,18.63
2023-04-27T19:08:50.645Z,18.98
2023-04-27T19:11:22.291Z,24.02
2023-04-27T19:13:50.324Z,20.23
2023-04-27T19:16:26.036Z,19.35
2023-04-27T19:18:57.256Z,20.90
2023-04-27T19:21:25.214Z,22.38
2023-04-27T19:23:53.202Z,20.40
2023-04-27T19:26:21.432Z,24.67
2023-04-27T19:28:49.048Z,24.15
2023-04-27T19:31:17.337Z,20.00
2023-04-27T19:33:47.372Z,23.63
2023-04-27T19:36:23.178Z,22.10
2023-04-27T19:38:50.850Z,18.63
2023-04-27T19:41:18.664Z,21.45
2023-04-27T19:43:46.306Z,21.80
2023-04-27T19:46:14.083Z,22.92
2023-04-27T19:48:42.520Z,21.73
2023-04-27T19:51:10.734Z,22.10
2023-04-27T19:53:39.009Z,22.13
2023-04-27T19:56:07.501Z,22.70
2023-04-27T19:58:36.044Z,19.73
2023-04-27T20:01:04.178Z,21.35
2023-04-27T20:03:32.128Z,19.80
2023-04-27T20:06:00.381Z,19.92
2023-04-27T20:08:28.108Z,21.67
2023-04-27T20:10:55.785Z,22.95
2023-04-27T20:13:23.363Z,21.80
2023-04-27T20:15:51.607Z,21.27
2023-04-27T20:18:19.492Z,22.48
2023-04-27T20:20:47.425Z,23.30
2023-04-27T20:23:15.019Z,21.05
2023-04-27T20:25:42.636Z,22.73
2023-04-27T20:28:10.238Z,28.15
2023-04-27T20:30:37.991Z,27.52
2023-04-27T20:33:05.660Z,19.83
2023-04-27T20:35:33.896Z,25.63
2023-04-27T20:38:02.013Z,24.35
2023-04-27T20:40:29.617Z,22.30
2023-04-27T20:42:57.398Z,25.50
2023-04-27T20:45:25.557Z,21.70
2023-04-27T20:47:53.445Z,23.05
2023-04-27T20:50:21.275Z,22.40
2023-04-27T20:52:48.976Z,23.42
2023-04-27T20:55:16.717Z,22.73
2023-04-27T20:57:44.315Z,25.07
2023-04-27T21:00:13.320Z,20.88
2023-04-27T21:02:41.069Z,26.13
2023-04-27T21:05:08.830Z,22.52
2023-04-27T21:07:36.421Z,25.02
2023-04-27T21:10:06.901Z,26.00
2023-04-27T21:12:34.510Z,24.95
2023-04-27T21:15:02.110Z,23.05
2023-04-27T21:17:29.914Z,26.08
2023-04-27T21:19:58.295Z,23.23
2023-04-27T21:22:26.139Z,23.93
2023-04-27T21:24:53.682Z,25.98
2023-04-27T21:27:21.330Z,24.48
2023-04-27T21:29:49.178Z,24.23
2023-04-27T21:32:16.962Z,25.95
2023-04-27T21:34:44.481Z,24.60
2023-04-27T21:37:12.104Z,26.63
2023-04-27T21:39:39.659Z,25.65
2023-04-27T21:42:07.294Z,21.58
2023-04-27T21:44:34.940Z,24.45
2023-04-27T21:47:02.658Z,21.70
2023-04-27T21:49:30.391Z,21.42
2023-04-27T21:51:58.312Z,22.92
2023-04-27T21:54:25.997Z,23.73
2023-04-27T21:56:53.718Z,22.52
2023-04-27T21:59:21.755Z,22.60
2023-04-27T22:01:49.408Z,22.55
2023-04-27T22:04:17.461Z,21.60
2023-04-27T22:06:45.838Z,35.83
2023-04-27T22:09:14.147Z,23.15
2023-04-27T22:11:41.776Z,21.43
2023-04-27T22:14:09.366Z,21.02
2023-04-27T22:16:37.027Z,23.70
2023-04-27T22:19:05.102Z,23.20
2023-04-27T22:21:33.375Z,24.75
2023-04-27T22:24:00.917Z,23.67
2023-04-27T22:26:28.512Z,28.00
2023-04-27T22:28:56.119Z,27.48
2023-04-27T22:31:24.001Z,27.00
2023-04-27T22:33:51.859Z,28.13
2023-04-27T22:36:19.523Z,28.13
2023-04-27T22:38:47.302Z,28.90
2023-04-27T22:41:14.960Z,27.50
2023-04-27T22:43:42.658Z,26.77
2023-04-27T22:46:10.249Z,28.70
2023-04-27T22:48:37.790Z,29.43
2023-04-27T22:51:09.535Z,28.33
2023-04-27T22:53:37.660Z,24.92
2023-04-27T22:56:06.151Z,26.17
2023-04-27T22:58:33.808Z,27.58
2023-04-27T23:01:01.734Z,25.00
2023-04-27T23:03:29.505Z,25.52
2023-04-27T23:05:57.203Z,24.77
2023-04-27T23:08:25.358Z,26.65
2023-04-27T23:10:56.960Z,29.42
2023-04-27T23:13:27.622Z,26.07
2023-04-27T23:15:55.333Z,28.27
2023-04-27T23:18:22.997Z,23.88
2023-04-27T23:20:57.302Z,25.90
2023-04-27T23:23:24.884Z,24.73
2023-04-27T23:25:52.399Z,23.33
2023-04-27T23:28:20.848Z,26.52
2023-04-27T23:30:55.145Z,27.40
2023-04-27T23:33:22.865Z,24.80
2023-04-27T23:35:50.486Z,27.83
2023-04-27T23:38:18.044Z,26.70
2023-04-27T23:40:45.613Z,30.67
2023-04-27T23:43:13.222Z,27.70
2023-04-27T23:45:40.960Z,27.05
2023-04-27T23:48:08.536Z,29.40
2023-04-27T23:50:36.104Z,31.30
2023-04-27T23:53:03.788Z,30.85
2023-04-27T23:55:34.602Z,31.13
2023-04-27T23:58:02.602Z,29.00
